Time;durP1;ratioP1;P1;durP2;ratioP2;P2;SDS_P1;SDS_P2;PMS_P1;PMS_P2;Temp;Humidity;BMP_temperature;BMP_pressure;BME280_temperature;BME280_humidity;BME280_pressure;Samples;Min_cycle;Max_cycle;Signal;HPM_P1;HPM_P2
2023/02/21 02:14:48;;;;;;;;;;;;;;;10.26;58.77;97619.13;4995339;28;19936;-78
2023/02/21 02:17:23;;;;;;;;;;;;;;;10.39;58.28;97612.91;4989785;28;19917;-78
2023/02/21 02:19:57;;;;;;;;;;;;;;;10.29;58.51;97609.03;5007123;28;19972;-78
2023/02/21 02:22:22;;;;;;;;;;;;;;;10.21;59.02;97614.63;4987013;28;19921;-78
2023/02/21 02:24:51;;;;;;;;;;;;;;;10.32;58.60;97612.25;5001376;28;20304;-78
2023/02/21 02:27:19;;;;;;;;;;;;;;;10.26;58.56;97612.13;5012193;28;20295;-78
2023/02/21 02:30:02;;;;;;;;;;;;;;;10.21;58.88;97619.84;4993561;28;19914;-78
2023/02/21 02:32:34;;;;;;;;;;;;;;;10.15;58.54;97628.56;4988241;28;19914;-78
2023/02/21 02:35:08;;;;;;;;;;;;;;;10.03;58.65;97628.59;4993045;28;20358;-78
2023/02/21 02:37:37;;;;;;;;;;;;;;;9.92;58.97;97617.19;4996775;28;19920;-78
2023/02/21 02:40:02;;;;;;;;;;;;;;;9.79;59.87;97614.03;5002789;28;19920;-78
2023/02/21 02:42:27;;;;;;;;;;;;;;;9.75;59.68;97609.28;4988168;28;19917;-78
2023/02/21 02:44:55;;;;;;;;;;;;;;;9.79;59.36;97611.44;4999789;28;19924;-77
2023/02/21 02:47:22;;;;;;;;;;;;;;;9.72;59.47;97609.75;5003899;28;19921;-77
2023/02/21 02:49:47;;;;;;;;;;;;;;;9.56;60.61;97611.22;4982233;28;19976;-77
2023/02/21 02:52:12;;;;;;;;;;;;;;;9.54;60.79;97604.66;4986166;28;20427;-78
2023/02/21 02:54:38;;;;;;;;;;;;;;;9.50;60.44;97603.53;5007949;28;20000;-78
2023/02/21 02:57:09;;;;;;;;;;;;;;;9.50;60.78;97600.94;4981379;28;19917;-78
2023/02/21 02:59:34;;;;;;;;;;;;;;;9.52;60.86;97604.88;4985257;28;20196;-78
2023/02/21 03:02:18;;;;;;;;;;;;;;;9.59;60.58;97598.78;4982170;28;20270;-77
2023/02/21 03:05:00;;;;;;;;;;;;;;;9.66;60.64;97604.66;4968842;28;19926;-77
2023/02/21 03:07:25;;;;;;;;;;;;;;;9.63;60.19;97605.09;4990532;28;19917;-78
2023/02/21 03:10:14;;;;;;;;;;;;;;;9.64;60.00;97611.91;4969498;28;19914;-78
2023/02/21 03:12:52;;;;;;;;;;;;;;;9.56;60.34;97606.03;4979340;28;19917;-78
2023/02/21 03:15:24;;;;;;;;;;;;;;;9.54;60.43;97604.66;4977803;28;20368;-78
2023/02/21 03:18:00;;;;;;;;;;;;;;;9.47;60.29;97606.59;4978088;28;20138;-78
2023/02/21 03:20:25;;;;;;;;;;;;;;;9.37;60.26;97601.94;4967119;28;19914;-78
2023/02/21 03:22:50;;;;;;;;;;;;;;;9.37;60.65;97602.75;4978867;28;19921;-78
2023/02/21 03:25:16;;;;;;;;;;;;;;;9.34;61.62;97597.22;4980091;28;19929;-78
2023/02/21 03:27:41;;;;;;;;;;;;;;;9.37;60.83;97596.75;4971481;28;20016;-77
2023/02/21 03:30:08;;;;;;;;;;;;;;;9.36;60.98;97589.97;4979057;28;20008;-78
2023/02/21 03:32:37;;;;;;;;;;;;;;;9.37;61.16;97592.34;4981345;28;20020;-78
2023/02/21 03:35:03;;;;;;;;;;;;;;;9.37;61.39;97591.53;4987150;28;19992;-78
2023/02/21 03:37:30;;;;;;;;;;;;;;;9.37;61.07;97596.75;4950938;28;20396;-77
2023/02/21 03:39:55;;;;;;;;;;;;;;;9.31;61.58;97593.25;4986851;28;20391;-78
2023/02/21 03:42:20;;;;;;;;;;;;;;;9.36;61.15;97600.38;4983347;28;19914;-77
2023/02/21 03:44:45;;;;;;;;;;;;;;;9.30;61.36;97603.84;4965863;28;19981;-78
2023/02/21 03:47:11;;;;;;;;;;;;;;;9.28;61.16;97611.09;4970379;28;20008;-78
2023/02/21 03:49:36;;;;;;;;;;;;;;;9.24;61.24;97612.56;4977114;28;20220;-78
2023/02/21 03:52:01;;;;;;;;;;;;;;;9.25;61.17;97606.34;4955037;28;19914;-78
2023/02/21 03:54:26;;;;;;;;;;;;;;;9.21;61.44;97608.59;4958361;28;19948;-78
2023/02/21 03:56:52;;;;;;;;;;;;;;;9.17;61.40;97612.66;4988826;28;20230;-78
2023/02/21 03:59:17;;;;;;;;;;;;;;;9.12;61.52;97620.34;4984831;28;19964;-78
2023/02/21 04:01:42;;;;;;;;;;;;;;;9.11;61.01;97618.75;4985243;28;19921;-78
2023/02/21 04:04:08;;;;;;;;;;;;;;;9.08;61.30;97614.81;4957090;28;20541;-78
2023/02/21 04:06:33;;;;;;;;;;;;;;;8.96;62.38;97616.56;4971288;28;20374;-77
2023/02/21 04:08:58;;;;;;;;;;;;;;;9.10;62.25;97617.97;4965262;28;20341;-78
2023/02/21 04:11:24;;;;;;;;;;;;;;;9.11;62.07;97616.16;4989178;28;19984;-78
2023/02/21 04:13:49;;;;;;;;;;;;;;;9.09;62.30;97618.97;4988030;28;19918;-77
2023/02/21 04:16:14;;;;;;;;;;;;;;;8.96;63.08;97613.97;4988367;28;20029;-77
2023/02/21 04:18:39;;;;;;;;;;;;;;;9.03;62.89;97611.28;4985384;28;19921;-78
2023/02/21 04:21:05;;;;;;;;;;;;;;;9.07;62.54;97608.03;4989229;28;19918;-78
2023/02/21 04:23:30;;;;;;;;;;;;;;;9.12;62.61;97610.75;4986189;28;20285;-78
2023/02/21 04:25:56;;;;;;;;;;;;;;;9.17;62.37;97610.84;4989489;28;20077;-78
2023/02/21 04:28:21;;;;;;;;;;;;;;;9.22;62.27;97604.19;4967086;28;19920;-77
2023/02/21 04:30:46;;;;;;;;;;;;;;;9.30;62.41;97611.66;4985300;28;20423;-77
2023/02/21 04:33:11;;;;;;;;;;;;;;;9.38;62.10;97606.91;4988624;28;19961;-78
2023/02/21 04:35:37;;;;;;;;;;;;;;;9.37;61.57;97617.53;4977661;28;19968;-77
2023/02/21 04:38:02;;;;;;;;;;;;;;;9.45;61.73;97606.81;4984080;28;19921;-77
2023/02/21 04:40:27;;;;;;;;;;;;;;;9.33;61.55;97606.00;4980667;28;19913;-78
2023/02/21 04:42:52;;;;;;;;;;;;;;;9.38;61.59;97603.53;4980437;28;19914;-77
2023/02/21 04:45:18;;;;;;;;;;;;;;;9.25;61.27;97603.75;4971809;28;19918;-78
2023/02/21 04:47:43;;;;;;;;;;;;;;;9.11;61.26;97603.94;4975607;28;20413;-78
2023/02/21 04:50:08;;;;;;;;;;;;;;;9.03;61.28;97606.91;4980881;28;19913;-77
2023/02/21 04:52:33;;;;;;;;;;;;;;;8.91;61.24;97603.47;4963287;28;19918;-78
2023/02/21 04:54:59;;;;;;;;;;;;;;;8.81;61.42;97609.22;4973556;28;20008;-78
2023/02/21 04:57:24;;;;;;;;;;;;;;;8.81;61.81;97601.41;4976811;28;19917;-77
2023/02/21 04:59:54;;;;;;;;;;;;;;;8.81;61.81;97599.59;4976417;28;19914;-77
2023/02/21 05:02:20;;;;;;;;;;;;;;;8.79;61.43;97606.03;4985633;28;20154;-78
2023/02/21 05:04:45;;;;;;;;;;;;;;;8.74;61.34;97603.31;4982131;28;20045;-78
2023/02/21 05:07:10;;;;;;;;;;;;;;;8.70;61.78;97608.16;4980289;28;20041;-78
2023/02/21 05:09:36;;;;;;;;;;;;;;;8.65;62.10;97602.81;4955657;28;19918;-78
2023/02/21 05:12:01;;;;;;;;;;;;;;;8.65;62.31;97595.03;4988985;28;19920;-78
2023/02/21 05:14:26;;;;;;;;;;;;;;;8.61;62.56;97593.91;4985792;28;19918;-78
2023/02/21 05:16:52;;;;;;;;;;;;;;;8.62;62.30;97598.88;4987466;28;19925;-78
2023/02/21 05:19:25;;;;;;;;;;;;;;;8.55;62.41;97599.97;4986143;28;19914;-78
2023/02/21 05:21:51;;;;;;;;;;;;;;;8.57;62.62;97605.75;4983109;28;19914;-78
2023/02/21 05:24:16;;;;;;;;;;;;;;;8.54;62.71;97596.59;4971712;28;19925;-77
2023/02/21 05:26:41;;;;;;;;;;;;;;;8.55;62.47;97598.19;4979800;28;19957;-78
2023/02/21 05:29:06;;;;;;;;;;;;;;;8.50;62.33;97590.25;4974243;28;19925;-77
2023/02/21 05:31:32;;;;;;;;;;;;;;;8.44;61.85;97598.91;4990091;28;19914;-78
2023/02/21 05:33:58;;;;;;;;;;;;;;;8.36;61.91;97591.41;4982158;28;19914;-77
2023/02/21 05:36:24;;;;;;;;;;;;;;;8.15;63.76;97584.88;4987666;28;19953;-78
2023/02/21 05:38:50;;;;;;;;;;;;;;;8.14;64.38;97578.09;4969293;28;19917;-77
2023/02/21 05:41:16;;;;;;;;;;;;;;;8.36;64.04;97571.47;4971977;28;20407;-78
2023/02/21 05:43:42;;;;;;;;;;;;;;;8.43;63.66;97581.75;4987251;28;19913;-78
2023/02/21 05:46:14;;;;;;;;;;;;;;;8.34;62.60;97585.66;4985150;28;19925;-78
2023/02/21 05:48:39;;;;;;;;;;;;;;;8.32;62.75;97577.31;4971231;28;20009;-78
2023/02/21 05:51:04;;;;;;;;;;;;;;;8.33;63.04;97582.28;4987979;28;20492;-78
2023/02/21 05:53:30;;;;;;;;;;;;;;;8.28;63.06;97584.72;4969346;28;19913;-77
2023/02/21 05:55:55;;;;;;;;;;;;;;;8.24;63.00;97584.38;4989702;28;19914;-78
2023/02/21 05:58:20;;;;;;;;;;;;;;;8.23;63.26;97582.00;4963504;28;19913;-78
2023/02/21 06:00:50;;;;;;;;;;;;;;;8.24;63.06;97574.00;4985970;28;20312;-77
2023/02/21 06:03:15;;;;;;;;;;;;;;;8.21;63.05;97582.22;4965273;28;19956;-78
2023/02/21 06:05:40;;;;;;;;;;;;;;;8.16;63.32;97581.28;4954369;28;20357;-78
2023/02/21 06:08:05;;;;;;;;;;;;;;;8.14;63.38;97578.09;4963011;28;19921;-78
2023/02/21 06:10:31;;;;;;;;;;;;;;;8.13;63.66;97582.50;4978420;28;20211;-78
2023/02/21 06:12:56;;;;;;;;;;;;;;;8.14;63.64;97583.28;4986813;28;19917;-78
2023/02/21 06:15:21;;;;;;;;;;;;;;;8.14;63.55;97583.28;4968459;28;19936;-78
2023/02/21 06:17:46;;;;;;;;;;;;;;;8.14;63.68;97578.91;4985868;28;20030;-78
2023/02/21 06:20:13;;;;;;;;;;;;;;;8.20;63.95;97588.41;4984911;28;20301;-77
2023/02/21 06:22:39;;;;;;;;;;;;;;;8.22;64.28;97590.78;4950285;28;19913;-78
2023/02/21 06:25:04;;;;;;;;;;;;;;;8.25;63.98;97591.13;4982295;28;20694;-78
2023/02/21 06:27:29;;;;;;;;;;;;;;;8.27;63.59;97593.50;4965918;28;20383;-78
2023/02/21 06:29:55;;;;;;;;;;;;;;;8.30;63.67;97587.88;4968103;28;19921;-77
2023/02/21 06:32:20;;;;;;;;;;;;;;;8.23;63.41;97587.97;4980985;28;20100;-78
2023/02/21 06:34:45;;;;;;;;;;;;;;;8.21;63.13;97591.81;4947772;28;20580;-78
2023/02/21 06:37:10;;;;;;;;;;;;;;;8.10;63.80;97592.53;4966614;28;19914;-78
2023/02/21 06:39:37;;;;;;;;;;;;;;;8.01;64.68;97595.41;4982785;28;19922;-77
2023/02/21 06:42:02;;;;;;;;;;;;;;;8.06;65.41;97590.38;4973526;28;19917;-77
2023/02/21 06:44:27;;;;;;;;;;;;;;;8.15;64.89;97595.25;4961250;28;19921;-77
2023/02/21 06:46:53;;;;;;;;;;;;;;;8.23;64.41;97592.38;4962481;28;19996;-78
2023/02/21 06:49:19;;;;;;;;;;;;;;;8.36;63.28;97591.41;4975808;28;19918;-78
2023/02/21 06:51:44;;;;;;;;;;;;;;;8.40;62.99;97593.34;4979050;28;19918;-78
2023/02/21 06:54:10;;;;;;;;;;;;;;;8.36;62.04;97596.59;4980443;28;19922;-78
2023/02/21 06:56:35;;;;;;;;;;;;;;;8.17;62.53;97593.22;4938486;28;20398;-78
2023/02/21 06:59:00;;;;;;;;;;;;;;;8.09;62.20;97596.13;4956576;28;20238;-78
2023/02/21 07:01:26;;;;;;;;;;;;;;;7.98;62.29;97595.06;4976422;28;20480;-78
2023/02/21 07:03:52;;;;;;;;;;;;;;;7.90;62.65;97601.34;4979154;28;19929;-78
2023/02/21 07:06:17;;;;;;;;;;;;;;;7.91;62.14;97597.72;4961806;28;19926;-78
2023/02/21 07:08:42;;;;;;;;;;;;;;;7.84;62.37;97591.81;4982823;28;19992;-78
2023/02/21 07:11:08;;;;;;;;;;;;;;;7.90;63.38;97596.16;4978356;28;19921;-78
2023/02/21 07:13:33;;;;;;;;;;;;;;;8.02;64.64;97597.00;4954699;28;20442;-78
2023/02/21 07:15:58;;;;;;;;;;;;;;;8.23;64.11;97595.75;4965244;28;19914;-78
2023/02/21 07:18:24;;;;;;;;;;;;;;;8.35;64.00;97595.81;4972535;28;20281;-78
2023/02/21 07:20:49;;;;;;;;;;;;;;;8.42;63.45;97587.94;4972227;28;19914;-78
2023/02/21 07:23:14;;;;;;;;;;;;;;;8.50;62.97;97592.06;4980355;28;19914;-78
2023/02/21 07:25:40;;;;;;;;;;;;;;;8.47;62.00;97589.91;4964862;28;19918;-78
2023/02/21 07:28:05;;;;;;;;;;;;;;;8.45;62.27;97590.13;4962514;28;19924;-78
2023/02/21 07:30:30;;;;;;;;;;;;;;;8.43;62.08;97590.34;4973187;28;19924;-78
2023/02/21 07:32:56;;;;;;;;;;;;;;;8.35;62.07;97595.03;4990602;28;20011;-77
2023/02/21 07:35:21;;;;;;;;;;;;;;;8.34;61.44;97588.25;4972729;28;19976;-78
2023/02/21 07:37:46;;;;;;;;;;;;;;;8.27;62.08;97598.69;4966498;28;19948;-78
2023/02/21 07:40:11;;;;;;;;;;;;;;;8.29;62.09;97590.69;4973615;28;19913;-78
2023/02/21 07:42:42;;;;;;;;;;;;;;;8.18;62.02;97592.25;4987854;28;20300;-78
2023/02/21 07:45:07;;;;;;;;;;;;;;;8.27;62.98;97593.50;4969193;28;19925;-78
2023/02/21 07:47:32;;;;;;;;;;;;;;;8.40;62.78;97588.16;4983568;28;19914;-78
2023/02/21 07:49:57;;;;;;;;;;;;;;;8.53;63.00;97586.41;4993741;28;19921;-78
2023/02/21 07:52:23;;;;;;;;;;;;;;;8.68;62.74;97588.63;4972479;28;20040;-78
2023/02/21 07:54:48;;;;;;;;;;;;;;;8.85;62.97;97593.97;4978609;28;19985;-78
2023/02/21 07:57:14;;;;;;;;;;;;;;;9.07;63.08;97595.03;4986590;28;19917;-77
2023/02/21 07:59:42;;;;;;;;;;;;;;;9.21;62.72;97594.81;4983412;28;20463;-77
2023/02/21 08:02:08;;;;;;;;;;;;;;;9.36;62.58;97589.97;4979734;28;20574;-79
2023/02/21 08:04:34;;;;;;;;;;;;;;;9.49;62.42;97583.75;4984232;28;19968;-77
2023/02/21 08:06:59;;;;;;;;;;;;;;;9.64;62.39;97585.91;4976152;28;20174;-78
2023/02/21 08:09:24;;;;;;;;;;;;;;;9.84;62.19;97591.53;4977224;28;19914;-78
2023/02/21 08:11:50;;;;;;;;;;;;;;;10.10;61.53;97584.22;4957780;28;19914;-78
2023/02/21 08:14:15;;;;;;;;;;;;;;;10.12;61.51;97584.78;4989825;28;20012;-78
2023/02/21 08:16:40;;;;;;;;;;;;;;;10.22;61.04;97584.97;4975064;28;19920;-78
2023/02/21 08:19:06;;;;;;;;;;;;;;;10.32;61.02;97581.81;4986970;28;19918;-77
2023/02/21 08:21:32;;;;;;;;;;;;;;;10.44;60.95;97587.75;4986836;28;20012;-78
2023/02/21 08:23:57;;;;;;;;;;;;;;;10.57;60.68;97578.06;4967683;28;20325;-78
2023/02/21 08:26:22;;;;;;;;;;;;;;;10.60;60.51;97580.22;4985245;28;19918;-79
2023/02/21 08:28:47;;;;;;;;;;;;;;;10.73;59.52;97582.53;4974438;28;19917;-78
2023/02/21 08:31:16;;;;;;;;;;;;;;;10.89;59.99;97580.97;4974980;28;19925;-78
2023/02/21 08:33:41;;;;;;;;;;;;;;;11.01;59.00;97579.06;4973989;28;19940;-79
2023/02/21 08:36:06;;;;;;;;;;;;;;;11.07;58.96;97585.16;4990364;28;19917;-78
2023/02/21 08:38:32;;;;;;;;;;;;;;;11.18;58.67;97580.91;4971458;28;20337;-78
2023/02/21 08:40:57;;;;;;;;;;;;;;;11.26;58.56;97583.09;4990562;28;19949;-78
2023/02/21 08:43:23;;;;;;;;;;;;;;;11.37;58.01;97571.78;4987852;28;19922;-78
2023/02/21 08:45:48;;;;;;;;;;;;;;;11.44;58.56;97582.81;4976012;28;19930;-78
2023/02/21 08:48:13;;;;;;;;;;;;;;;11.52;58.17;97573.81;4983292;28;20384;-78
2023/02/21 08:50:39;;;;;;;;;;;;;;;11.63;57.94;97566.91;4988563;28;20254;-79
2023/02/21 08:53:04;;;;;;;;;;;;;;;11.63;57.27;97569.53;4958654;28;19922;-78
2023/02/21 08:55:29;;;;;;;;;;;;;;;11.78;57.25;97572.31;4990225;28;20289;-79
2023/02/21 08:57:54;;;;;;;;;;;;;;;11.95;57.26;97571.53;4986027;28;20012;-78
2023/02/21 09:00:27;;;;;;;;;;;;;;;12.07;56.75;97564.34;4976276;28;19920;-78
2023/02/21 09:02:52;;;;;;;;;;;;;;;12.31;56.03;97571.94;4956758;28;20373;-78
2023/02/21 09:05:19;;;;;;;;;;;;;;;12.45;55.52;97572.31;4978832;28;19932;-79
2023/02/21 09:07:48;;;;;;;;;;;;;;;12.53;55.34;97561.44;4951048;28;19914;-78
2023/02/21 09:10:13;;;;;;;;;;;;;;;12.83;54.10;97566.13;4954339;28;19918;-79
2023/02/21 09:12:39;;;;;;;;;;;;;;;12.77;54.60;97564.53;4972000;28;19918;-78
2023/02/21 09:15:04;;;;;;;;;;;;;;;12.86;53.89;97567.47;4954662;28;19965;-79
2023/02/21 09:17:32;;;;;;;;;;;;;;;12.91;54.57;97570.13;4981907;28;19914;-78
2023/02/21 09:19:58;;;;;;;;;;;;;;;13.06;54.23;97562.41;4955060;28;19961;-78
2023/02/21 09:22:23;;;;;;;;;;;;;;;13.06;53.68;97564.25;4971714;28;19952;-79
2023/02/21 09:24:49;;;;;;;;;;;;;;;13.10;53.78;97563.47;4955540;28;20065;-78
2023/02/21 09:27:16;;;;;;;;;;;;;;;13.26;53.49;97568.81;4966995;28;19914;-78
2023/02/21 09:29:41;;;;;;;;;;;;;;;13.30;53.79;97564.66;4973111;28;19991;-79
2023/02/21 09:32:07;;;;;;;;;;;;;;;13.29;54.15;97563.84;4991911;28;20004;-79
2023/02/21 09:34:32;;;;;;;;;;;;;;;13.37;53.69;97562.63;4990215;28;19918;-78
2023/02/21 09:36:58;;;;;;;;;;;;;;;13.66;53.86;97565.66;4973730;28;19917;-78
2023/02/21 09:39:23;;;;;;;;;;;;;;;13.70;53.07;97567.78;4957282;28;19914;-79
2023/02/21 09:41:49;;;;;;;;;;;;;;;13.83;52.84;97562.88;4971203;28;20497;-78
2023/02/21 09:44:19;;;;;;;;;;;;;;;13.90;52.68;97565.25;4972697;28;19964;-79
2023/02/21 09:46:45;;;;;;;;;;;;;;;14.11;52.02;97567.94;4955941;28;19951;-78
2023/02/21 09:49:13;;;;;;;;;;;;;;;14.15;51.33;97553.28;4958593;28;19929;-79
2023/02/21 09:51:40;;;;;;;;;;;;;;;14.19;50.90;97549.91;4952766;28;19914;-78
2023/02/21 09:54:07;;;;;;;;;;;;;;;14.23;51.29;97550.19;4979675;28;19924;-78
2023/02/21 09:56:34;;;;;;;;;;;;;;;14.31;51.09;97556.72;4988465;28;19928;-79
2023/02/21 09:58:59;;;;;;;;;;;;;;;14.37;51.40;97555.69;4966584;28;19914;-78
2023/02/21 10:01:24;;;;;;;;;;;;;;;14.48;50.55;97549.44;4962872;28;20001;-78
2023/02/21 10:03:53;;;;;;;;;;;;;;;14.49;50.11;97556.25;4989604;28;19921;-78
2023/02/21 10:06:27;;;;;;;;;;;;;;;14.67;50.66;97549.75;4971987;28;19965;-78
2023/02/21 10:08:56;;;;;;;;;;;;;;;14.77;49.71;97544.53;4984776;28;19917;-78
2023/02/21 10:11:29;;;;;;;;;;;;;;;14.95;49.70;97545.03;4972743;28;19917;-78
2023/02/21 10:14:03;;;;;;;;;;;;;;;15.28;49.69;97548.91;4989805;28;19919;-79
2023/02/21 10:16:28;;;;;;;;;;;;;;;15.34;49.18;97553.13;4979881;28;20238;-79
2023/02/21 10:19:06;;;;;;;;;;;;;;;15.67;48.56;97552.78;4986849;28;19914;-78
2023/02/21 10:21:42;;;;;;;;;;;;;;;15.67;48.87;97555.41;4969343;28;19914;-79
2023/02/21 10:24:26;;;;;;;;;;;;;;;16.00;47.97;97550.56;4968171;28;20309;-80
2023/02/21 10:26:54;;;;;;;;;;;;;;;16.18;47.28;97549.19;4956283;28;20134;-79
2023/02/21 10:29:19;;;;;;;;;;;;;;;16.45;47.57;97546.09;4977145;28;21360;-79
2023/02/21 10:31:45;;;;;;;;;;;;;;;16.58;46.71;97548.13;4990042;28;19921;-79
2023/02/21 10:34:26;;;;;;;;;;;;;;;16.44;46.72;97541.94;4987200;28;20007;-79
2023/02/21 10:36:52;;;;;;;;;;;;;;;16.64;46.45;97541.78;4972803;28;19925;-79
2023/02/21 10:39:39;;;;;;;;;;;;;;;16.90;46.22;97533.72;4968252;28;20017;-79
2023/02/21 10:42:07;;;;;;;;;;;;;;;17.00;45.92;97535.50;4980308;28;19922;-79
2023/02/21 10:44:34;;;;;;;;;;;;;;;17.19;45.35;97535.56;4986865;28;19934;-79
2023/02/21 10:47:00;;;;;;;;;;;;;;;17.13;47.15;97536.66;4956051;28;20468;-79
2023/02/21 10:49:32;;;;;;;;;;;;;;;17.40;45.80;97531.66;4972098;28;19914;-79
2023/02/21 10:52:10;;;;;;;;;;;;;;;17.47;44.95;97530.56;4974717;28;19932;-78
2023/02/21 10:54:35;;;;;;;;;;;;;;;17.50;45.17;97528.13;4988858;28;20345;-80
2023/02/21 10:57:01;;;;;;;;;;;;;;;17.72;44.95;97530.25;4980114;28;19919;-79
2023/02/21 10:59:31;;;;;;;;;;;;;;;18.01;43.46;97518.06;4949764;28;19965;-79
2023/02/21 11:01:56;;;;;;;;;;;;;;;18.06;43.89;97526.72;4963538;28;19926;-80
2023/02/21 11:04:24;;;;;;;;;;;;;;;18.06;43.74;97524.06;4959807;28;19939;-79
2023/02/21 11:06:53;;;;;;;;;;;;;;;18.31;43.14;97516.88;4984593;28;20065;-81
2023/02/21 11:09:23;;;;;;;;;;;;;;;18.38;42.02;97514.66;4984530;28;20440;-80
2023/02/21 11:11:51;;;;;;;;;;;;;;;18.49;42.79;97520.56;4984567;28;19953;-79
2023/02/21 11:14:16;;;;;;;;;;;;;;;18.57;40.63;97513.84;4949357;28;20417;-80
2023/02/21 11:16:42;;;;;;;;;;;;;;;18.49;39.83;97510.00;4988705;28;20312;-81
2023/02/21 11:19:09;;;;;;;;;;;;;;;18.50;40.64;97506.31;4954110;28;19960;-79
2023/02/21 11:21:35;;;;;;;;;;;;;;;18.41;41.06;97500.91;4967948;28;20766;-79
2023/02/21 11:24:03;;;;;;;;;;;;;;;18.55;41.79;97497.53;4950594;28;19914;-80
2023/02/21 11:26:29;;;;;;;;;;;;;;;18.77;40.94;97487.16;4980557;28;20394;-79
2023/02/21 11:28:54;;;;;;;;;;;;;;;19.04;40.00;97489.09;4988422;28;20056;-80
2023/02/21 11:31:27;;;;;;;;;;;;;;;19.14;40.45;97479.41;4960845;28;19949;-79
2023/02/21 11:33:57;;;;;;;;;;;;;;;19.50;39.69;97473.44;4968406;28;19964;-80
2023/02/21 11:36:26;;;;;;;;;;;;;;;19.88;39.36;97470.56;4971631;28;20339;-79
2023/02/21 11:38:57;;;;;;;;;;;;;;;20.37;37.88;97461.81;4962642;28;20563;-79
2023/02/21 11:41:27;;;;;;;;;;;;;;;20.70;37.43;97466.88;4978235;28;20365;-79
2023/02/21 11:43:52;;;;;;;;;;;;;;;21.07;36.97;97456.91;4955416;28;19975;-79
2023/02/21 11:46:18;;;;;;;;;;;;;;;21.38;36.85;97450.78;4969086;28;19976;-80
2023/02/21 11:48:48;;;;;;;;;;;;;;;21.67;35.84;97452.13;4971644;28;19964;-79
2023/02/21 11:51:17;;;;;;;;;;;;;;;22.40;34.20;97452.31;4968104;28;19918;-80
2023/02/21 11:53:43;;;;;;;;;;;;;;;22.97;32.77;97447.78;4963817;28;19914;-80
2023/02/21 11:56:14;;;;;;;;;;;;;;;23.42;31.76;97443.84;4981228;28;20289;-79
2023/02/21 11:58:58;;;;;;;;;;;;;;;23.80;30.46;97441.06;4982561;28;20407;-79
2023/02/21 12:01:26;;;;;;;;;;;;;;;23.62;32.16;97442.31;4983050;28;19914;-80
2023/02/21 12:04:10;;;;;;;;;;;;;;;24.00;29.71;97434.22;4984322;28;20504;-80
2023/02/21 12:06:39;;;;;;;;;;;;;;;23.68;31.11;97430.38;4959052;28;19980;-80
2023/02/21 12:09:07;;;;;;;;;;;;;;;23.99;29.15;97427.38;4968453;28;19922;-80
2023/02/21 12:11:35;;;;;;;;;;;;;;;24.26;29.30;97436.66;4986804;28;19920;-80
2023/02/21 12:14:23;;;;;;;;;;;;;;;24.35;29.91;97427.81;4973923;28;20117;-80
2023/02/21 12:16:54;;;;;;;;;;;;;;;24.68;28.25;97422.50;4958497;28;19972;-80
2023/02/21 12:19:26;;;;;;;;;;;;;;;24.79;28.10;97415.63;4974824;28;19924;-80
2023/02/21 12:21:51;;;;;;;;;;;;;;;24.74;27.81;97423.06;4975961;28;19914;-80
2023/02/21 12:24:39;;;;;;;;;;;;;;;24.78;27.67;97419.41;4990493;28;19924;-80
2023/02/21 12:27:10;;;;;;;;;;;;;;;24.39;28.19;97410.09;4974653;28;19964;-80
2023/02/21 12:29:45;;;;;;;;;;;;;;;23.79;29.15;97402.31;4985494;28;20367;-80
2023/02/21 12:32:22;;;;;;;;;;;;;;;23.27;29.88;97406.13;4977311;28;20593;-80
2023/02/21 12:34:47;;;;;;;;;;;;;;;22.34;30.43;97405.03;4985085;28;19913;-80
2023/02/21 12:37:21;;;;;;;;;;;;;;;21.81;30.45;97391.00;4968054;28;19942;-81
2023/02/21 12:40:08;;;;;;;;;;;;;;;21.22;33.52;97400.09;4983695;28;20056;-80
2023/02/21 12:42:34;;;;;;;;;;;;;;;21.04;32.51;97401.13;4975110;28;19925;-80
2023/02/21 12:45:02;;;;;;;;;;;;;;;20.73;33.22;97388.72;5005287;28;20293;-79
2023/02/21 12:47:30;;;;;;;;;;;;;;;20.39;33.30;97387.44;4983312;28;20380;-79
2023/02/21 12:50:07;;;;;;;;;;;;;;;20.15;35.53;97388.56;4982029;28;19921;-79
2023/02/21 12:52:34;;;;;;;;;;;;;;;20.04;36.14;97381.19;4973625;28;19988;-79
2023/02/21 12:55:19;;;;;;;;;;;;;;;20.10;35.81;97374.66;4953204;28;19924;-79
2023/02/21 12:58:23;;;;;;;;;;;;;;;20.08;35.50;97368.91;4986421;28;19914;-78
2023/02/21 13:00:51;;;;;;;;;;;;;;;20.00;34.94;97365.91;4970963;28;19925;-80
2023/02/21 13:03:35;;;;;;;;;;;;;;;19.90;35.64;97360.88;4954646;28;19914;-79
2023/02/21 13:06:32;;;;;;;;;;;;;;;19.97;35.22;97358.56;4949506;28;19929;-79
2023/02/21 13:09:07;;;;;;;;;;;;;;;19.82;35.10;97358.94;4980133;28;19918;-79
2023/02/21 13:11:50;;;;;;;;;;;;;;;19.88;36.49;97352.47;4944387;28;19914;-79
2023/02/21 13:14:16;;;;;;;;;;;;;;;19.80;35.64;97351.31;4960947;28;19920;-79
2023/02/21 13:16:41;;;;;;;;;;;;;;;19.70;34.72;97348.88;4964113;28;19963;-80
2023/02/21 13:19:09;;;;;;;;;;;;;;;19.70;35.89;97348.09;4966609;28;19944;-79
2023/02/21 13:21:52;;;;;;;;;;;;;;;19.57;34.31;97336.47;4946269;28;19914;-80
2023/02/21 13:24:25;;;;;;;;;;;;;;;19.63;34.20;97335.31;4949992;28;20439;-79
2023/02/21 13:27:00;;;;;;;;;;;;;;;19.51;34.20;97341.09;4949206;29;20437;-79
2023/02/21 13:29:29;;;;;;;;;;;;;;;19.38;34.01;97328.72;4960711;28;20400;-79
2023/02/21 13:31:57;;;;;;;;;;;;;;;19.45;35.00;97326.47;4983151;28;20272;-80
2023/02/21 13:34:23;;;;;;;;;;;;;;;19.44;34.51;97330.19;4957320;28;19920;-79
2023/02/21 13:36:48;;;;;;;;;;;;;;;19.40;35.19;97327.34;4960023;28;19918;-79
2023/02/21 13:39:15;;;;;;;;;;;;;;;19.40;35.05;97323.94;4962722;28;19917;-79
2023/02/21 13:41:40;;;;;;;;;;;;;;;19.50;36.08;97329.00;4984312;28;19969;-79
2023/02/21 13:44:07;;;;;;;;;;;;;;;19.54;35.38;97318.63;4990141;28;20392;-80
2023/02/21 13:46:35;;;;;;;;;;;;;;;19.37;35.04;97308.69;4954793;28;20358;-79
2023/02/21 13:49:19;;;;;;;;;;;;;;;19.37;37.77;97308.69;4986627;28;20416;-79
2023/02/21 13:51:45;;;;;;;;;;;;;;;19.45;36.69;97300.06;4968405;28;19924;-79
2023/02/21 13:54:11;;;;;;;;;;;;;;;19.63;34.70;97300.97;4982442;28;19914;-80
2023/02/21 13:56:43;;;;;;;;;;;;;;;19.53;36.28;97296.69;4981095;28;19920;-79
2023/02/21 13:59:24;;;;;;;;;;;;;;;19.56;36.13;97301.38;4986187;28;20475;-79
2023/02/21 14:01:50;;;;;;;;;;;;;;;19.67;36.98;97295.84;4971436;28;19992;-79
2023/02/21 14:04:34;;;;;;;;;;;;;;;19.65;35.44;97298.78;4967527;28;20020;-79
2023/02/21 14:06:59;;;;;;;;;;;;;;;19.59;34.88;97290.22;4988220;28;19918;-80
2023/02/21 14:09:24;;;;;;;;;;;;;;;19.27;36.04;97291.19;4972862;28;19914;-79
2023/02/21 14:11:51;;;;;;;;;;;;;;;19.50;36.72;97291.22;4971808;28;19920;-79
2023/02/21 14:14:19;;;;;;;;;;;;;;;19.59;35.99;97294.72;4971543;28;19972;-79
2023/02/21 14:16:47;;;;;;;;;;;;;;;19.65;35.81;97288.22;4979250;28;20444;-79
2023/02/21 14:19:25;;;;;;;;;;;;;;;19.56;35.91;97293.44;4989648;28;19913;-80
2023/02/21 14:21:55;;;;;;;;;;;;;;;19.57;34.21;97284.47;4982188;28;20020;-80
2023/02/21 14:24:21;;;;;;;;;;;;;;;19.67;34.57;97285.28;4987518;28;19921;-80
2023/02/21 14:26:51;;;;;;;;;;;;;;;19.62;34.20;97292.25;4972330;28;19926;-79
2023/02/21 14:29:35;;;;;;;;;;;;;;;19.68;35.14;97284.22;4969350;28;19921;-80
2023/02/21 14:32:03;;;;;;;;;;;;;;;19.53;33.61;97288.75;4987496;28;19922;-79
2023/02/21 14:34:47;;;;;;;;;;;;;;;19.48;33.72;97285.47;4963690;28;20301;-80
2023/02/21 14:37:18;;;;;;;;;;;;;;;19.51;35.52;97284.88;4987458;28;19993;-79
2023/02/21 14:39:44;;;;;;;;;;;;;;;19.57;36.69;97281.03;4988154;28;20389;-79
2023/02/21 14:42:25;;;;;;;;;;;;;;;19.53;35.91;97291.41;4987265;28;20202;-80
2023/02/21 14:44:56;;;;;;;;;;;;;;;19.50;35.97;97275.38;4981705;28;20286;-80
2023/02/21 14:47:28;;;;;;;;;;;;;;;19.56;33.69;97269.69;4951672;28;19964;-80
2023/02/21 14:50:12;;;;;;;;;;;;;;;19.41;36.00;97273.44;4971947;28;19938;-79
2023/02/21 14:52:50;;;;;;;;;;;;;;;19.34;36.08;97269.69;4970753;28;20149;-79
2023/02/21 14:55:19;;;;;;;;;;;;;;;19.33;35.51;97271.53;4988308;28;19913;-80
2023/02/21 14:58:02;;;;;;;;;;;;;;;19.22;35.82;97264.91;4963264;28;19948;-79
2023/02/21 15:00:34;;;;;;;;;;;;;;;19.23;34.04;97256.69;4980039;28;19956;-79
2023/02/21 15:03:14;;;;;;;;;;;;;;;19.32;33.17;97261.28;4984927;28;20907;-79
2023/02/21 15:05:39;;;;;;;;;;;;;;;19.21;33.29;97256.22;4968502;28;19928;-79
2023/02/21 15:08:04;;;;;;;;;;;;;;;19.19;33.71;97255.75;4970272;28;19937;-80
2023/02/21 15:10:30;;;;;;;;;;;;;;;19.24;33.70;97254.84;4988604;28;19914;-79